Elm Grove, Louisiana
Current Conditions -  °F | °C
As of 4:58 PM on Wednesday 22 Oct 2014 (Local Time) from KBAD Reporting Station
Clear Clear  
Wind Chill: 77°   Ceiling: Unl
Heat Index: 78°   Visibility: 10mi
Dew Point: 49°   Wind: 8mph
Humidity: 37%   Direction: 80°E
Pressure: 30.09"   Gusts: NA
Location:  32.35°N, 93.55°W
Report Text: KBAD 222158Z AUTO 08007KT 10SM CLR 25/09 A3009 RMK AO2 SLP191 T02500094
Loading
Personal Weather Stations






























Interactive Weather Map New forecast layout! Learn more

10-Day Weather Forecast

Advertisements
Track Severe Weather on mobile